createdAt,value
2022-08-04T00:09:58.176Z,20.2
2022-08-04T00:20:00.509Z,20.1
2022-08-04T00:30:02.242Z,20
2022-08-04T00:40:04.302Z,20
2022-08-04T00:50:06.142Z,19.9
2022-08-04T01:00:08.258Z,19.8
2022-08-04T01:10:13.140Z,19.9
2022-08-04T01:20:11.798Z,20
2022-08-04T01:30:14.211Z,19.9
2022-08-04T01:40:16.635Z,19.8
2022-08-04T01:50:18.879Z,19.6
2022-08-04T02:00:21.141Z,19.6
2022-08-04T02:10:22.877Z,19.5
2022-08-04T02:20:24.995Z,19.5
2022-08-04T02:30:26.731Z,19.6
2022-08-04T02:40:29.051Z,19.7
2022-08-04T02:50:31.131Z,19.9
2022-08-04T03:00:32.858Z,20.1
2022-08-04T03:10:34.960Z,20
2022-08-04T03:20:37.588Z,19.8
2022-08-04T03:30:39.860Z,19.6
2022-08-04T03:40:41.695Z,19.4
2022-08-04T03:50:43.649Z,19.3
2022-08-04T04:00:45.824Z,19.1
2022-08-04T04:10:47.543Z,19.1
2022-08-04T04:20:49.210Z,18.9
2022-08-04T04:30:51.310Z,18.8
2022-08-04T04:40:53.319Z,18.9
2022-08-04T04:50:55.833Z,18.9
2022-08-04T05:00:57.904Z,19
2022-08-04T05:11:00.191Z,19.3
2022-08-04T05:31:05.336Z,20.6
2022-08-04T05:41:07.960Z,21.8
2022-08-04T05:51:10.036Z,22.4
2022-08-04T06:01:12.654Z,22.7
2022-08-04T06:11:14.931Z,23.5
2022-08-04T06:21:16.990Z,23.8
2022-08-04T06:32:29.282Z,23.9
2022-08-04T06:41:21.985Z,24.5
2022-08-04T06:51:35.440Z,25.7
2022-08-04T07:01:26.236Z,25.8
2022-08-04T07:11:28.341Z,26.7
2022-08-04T07:21:30.865Z,27.3
2022-08-04T07:31:33.943Z,28
2022-08-04T07:41:36.148Z,27.9
2022-08-04T07:51:36.707Z,28.9
2022-08-04T08:01:38.789Z,28.9
2022-08-04T08:12:34.866Z,28.6
2022-08-04T08:21:58.764Z,28.8
2022-08-04T08:31:55.770Z,29.2
2022-08-04T08:41:47.033Z,29.4
2022-08-04T08:51:49.289Z,29.8
2022-08-04T09:01:51.462Z,29.8
2022-08-04T09:11:52.824Z,30.4
2022-08-04T09:21:54.516Z,30.1
2022-08-04T09:32:06.562Z,31.2
2022-08-04T09:41:58.310Z,32.2
2022-08-04T10:02:03.075Z,32.3
2022-08-04T10:12:05.591Z,32.8
2022-08-04T10:32:09.291Z,32.8
2022-08-04T10:42:11.006Z,32.8
2022-08-04T11:12:17.578Z,33
2022-08-04T11:22:19.288Z,32.5
2022-08-04T11:32:21.829Z,32.7
2022-08-04T11:42:23.539Z,32.8
2022-08-04T12:32:32.797Z,31.3
2022-08-04T12:53:00.850Z,30.5
2022-08-04T13:12:41.977Z,29.6
2022-08-04T13:22:46.419Z,29.3
2022-08-04T13:32:46.260Z,29.5
2022-08-04T13:52:50.437Z,29.7
2022-08-04T14:12:54.504Z,29.4
2022-08-04T14:22:56.501Z,28.6
2022-08-04T14:32:58.308Z,28.8
2022-08-04T14:43:00.783Z,30.6
2022-08-04T14:53:02.532Z,30.1
2022-08-04T15:13:07.177Z,30.1
2022-08-04T15:33:10.976Z,29.3
2022-08-04T15:43:13.188Z,28.5
2022-08-04T15:53:14.872Z,28.8
2022-08-04T16:13:18.813Z,28.7
2022-08-04T16:33:22.866Z,28
2022-08-04T16:43:24.753Z,28
2022-08-04T16:53:51.705Z,28.5
2022-08-04T17:03:29.568Z,28.2
2022-08-04T17:14:04.113Z,28.1
2022-08-04T17:24:13.887Z,28.1
2022-08-04T17:44:01.861Z,27.6
2022-08-04T17:54:02.081Z,27.3
2022-08-04T18:03:42.292Z,26.8
2022-08-04T18:13:44.321Z,26.4
2022-08-04T18:33:56.994Z,25.6
2022-08-04T18:43:55.657Z,25.2
2022-08-04T18:46:52.874Z,25.2
2022-08-04T18:54:02.141Z,24.9
2022-08-04T19:04:04.187Z,24.7
2022-08-04T19:14:06.240Z,24.4
2022-08-04T19:24:11.918Z,24
2022-08-04T19:34:10.698Z,23.9
2022-08-04T19:44:13.121Z,23.7
2022-08-04T19:54:16.884Z,23.5
2022-08-04T20:04:17.826Z,23
2022-08-04T20:14:19.570Z,22.8
2022-08-04T20:24:36.366Z,22.4
2022-08-04T20:34:23.471Z,22.3
2022-08-04T20:44:25.596Z,22.1
2022-08-04T20:54:27.561Z,22
2022-08-04T21:04:30.088Z,21.8
2022-08-04T21:14:32.376Z,22.1
2022-08-04T21:24:34.102Z,22.3
2022-08-04T21:34:38.378Z,22.3
2022-08-04T21:44:38.024Z,22.1
2022-08-04T21:54:40.145Z,22
2022-08-04T22:04:42.333Z,22
2022-08-04T22:14:50.295Z,22
2022-08-04T22:34:53.212Z,21.8
2022-08-04T22:44:50.219Z,21.8
2022-08-04T22:54:52.262Z,21.7
2022-08-04T23:04:54.284Z,21.7
2022-08-04T23:14:56.108Z,21.6
2022-08-04T23:24:58.251Z,21.3
2022-08-04T23:45:02.814Z,20.5
2022-08-04T23:55:07.350Z,20.2
